UAL546 KORD-KEWR
Flight info
| Callsign | UAL546 |
|---|---|
| Flight time | 1h 24m |
| Altitude | 41000 |
| Route | DUFEE ELX HAAKK DOXXY SOSIC KEEHO J584 SLT FQM3 |
| Aircraft | B772/H-SDE2E3FGHIJ5LORVWXY/LB1D1 |
Departure
| Time | 2026-05-06 12:56 |
|---|---|
| Airport | Chicago O'Hare International Airport (KORD) |
Arrival
| Time | 2026-05-06 14:20 |
|---|---|
| Airport | Newark Liberty International Airport (KEWR) |
| Time | Latitude | Longitude | Altitude | Speed | Heading |
|---|---|---|---|---|---|
| 2026-05-06 12:27 | 41.97646 | -87.89738 | 665 ft | 0 kts | 33° |
| 2026-05-06 12:44 | 41.97639 | -87.89744 | 665 ft | 2 kts | 33° |
| 2026-05-06 12:44 | 41.97627 | -87.89755 | 666 ft | 2 kts | 33° |
| 2026-05-06 12:44 | 41.97614 | -87.89767 | 666 ft | 2 kts | 35° |
| 2026-05-06 12:45 | 41.97604 | -87.89780 | 666 ft | 2 kts | 58° |
| 2026-05-06 12:45 | 41.97597 | -87.89798 | 666 ft | 2 kts | 76° |
| 2026-05-06 12:45 | 41.97598 | -87.89834 | 666 ft | 0 kts | 110° |
| 2026-05-06 12:46 | 41.97599 | -87.89839 | 666 ft | 0 kts | 111° |
| 2026-05-06 12:46 | 41.97599 | -87.89838 | 666 ft | 0 kts | 111° |
| 2026-05-06 12:48 | 41.97597 | -87.89831 | 666 ft | 5 kts | 111° |
| 2026-05-06 12:49 | 41.97571 | -87.89737 | 665 ft | 13 kts | 110° |
| 2026-05-06 12:49 | 41.97543 | -87.89634 | 664 ft | 7 kts | 110° |
| 2026-05-06 12:49 | 41.97515 | -87.89558 | 664 ft | 10 kts | 127° |
| 2026-05-06 12:49 | 41.97483 | -87.89460 | 663 ft | 12 kts | 93° |
| 2026-05-06 12:50 | 41.97469 | -87.89359 | 662 ft | 8 kts | 134° |
| 2026-05-06 12:50 | 41.97406 | -87.89335 | 662 ft | 10 kts | 178° |
| 2026-05-06 12:50 | 41.97324 | -87.89333 | 662 ft | 12 kts | 179° |
| 2026-05-06 12:50 | 41.97230 | -87.89327 | 662 ft | 13 kts | 161° |
| 2026-05-06 12:51 | 41.97195 | -87.89209 | 662 ft | 15 kts | 91° |
| 2026-05-06 12:51 | 41.97194 | -87.89056 | 662 ft | 17 kts | 90° |
| 2026-05-06 12:51 | 41.97195 | -87.88890 | 662 ft | 18 kts | 90° |
| 2026-05-06 12:51 | 41.97195 | -87.88718 | 662 ft | 19 kts | 89° |
| 2026-05-06 12:52 | 41.97194 | -87.88532 | 662 ft | 20 kts | 93° |
| 2026-05-06 12:52 | 41.97173 | -87.88390 | 661 ft | 16 kts | 94° |
| 2026-05-06 12:52 | 41.97171 | -87.88235 | 661 ft | 17 kts | 90° |
| 2026-05-06 12:52 | 41.97166 | -87.88075 | 661 ft | 13 kts | 116° |
| 2026-05-06 12:53 | 41.97132 | -87.88042 | 661 ft | 0 kts | 168° |
| 2026-05-06 12:53 | 41.97131 | -87.88042 | 661 ft | 0 kts | 168° |
| 2026-05-06 12:53 | 41.97130 | -87.88042 | 661 ft | 0 kts | 168° |
| 2026-05-06 12:54 | 41.97094 | -87.88037 | 661 ft | 9 kts | 176° |
| 2026-05-06 12:54 | 41.97017 | -87.88031 | 661 ft | 12 kts | 178° |
| 2026-05-06 12:54 | 41.96931 | -87.88048 | 661 ft | 13 kts | 215° |
| 2026-05-06 12:54 | 41.96914 | -87.88068 | 661 ft | 0 kts | 222° |
| 2026-05-06 12:55 | 41.96911 | -87.88071 | 661 ft | 0 kts | 222° |
| 2026-05-06 12:55 | 41.96908 | -87.88075 | 661 ft | 6 kts | 222° |
| 2026-05-06 12:55 | 41.96678 | -87.88357 | 662 ft | 82 kts | 223° |
| 2026-05-06 12:55 | 41.96077 | -87.89068 | 662 ft | 145 kts | 220° |
| 2026-05-06 12:56 | 41.95264 | -87.90025 | 1156 ft | 147 kts | 223° |
| 2026-05-06 12:56 | 41.94526 | -87.90936 | 1725 ft | 156 kts | 223° |
| 2026-05-06 12:56 | 41.93680 | -87.91898 | 2352 ft | 163 kts | 218° |
| 2026-05-06 12:56 | 41.92677 | -87.92502 | 2788 ft | 164 kts | 186° |
| 2026-05-06 12:57 | 41.91550 | -87.92138 | 2932 ft | 175 kts | 142° |
| 2026-05-06 12:57 | 41.90961 | -87.90765 | 3229 ft | 172 kts | 92° |
| 2026-05-06 12:57 | 41.91176 | -87.89149 | 3336 ft | 185 kts | 70° |
| 2026-05-06 12:57 | 41.91611 | -87.87395 | 3469 ft | 209 kts | 69° |
| 2026-05-06 12:58 | 41.92120 | -87.85480 | 3834 ft | 225 kts | 68° |
| 2026-05-06 12:58 | 41.92650 | -87.83463 | 4263 ft | 239 kts | 69° |
| 2026-05-06 12:58 | 41.93186 | -87.81298 | 4866 ft | 245 kts | 70° |
| 2026-05-06 12:58 | 41.93714 | -87.79115 | 5372 ft | 256 kts | 70° |
| 2026-05-06 12:59 | 41.94292 | -87.76759 | 5740 ft | 273 kts | 70° |
| 2026-05-06 12:59 | 41.94897 | -87.74285 | 6351 ft | 281 kts | 69° |
| 2026-05-06 12:59 | 41.95509 | -87.71780 | 7037 ft | 286 kts | 69° |
| 2026-05-06 12:59 | 41.96130 | -87.69237 | 7670 ft | 292 kts | 69° |
| 2026-05-06 13:00 | 41.96765 | -87.66630 | 8305 ft | 298 kts | 69° |
| 2026-05-06 13:00 | 41.97414 | -87.63962 | 9028 ft | 301 kts | 69° |
| 2026-05-06 13:00 | 41.98066 | -87.61282 | 9664 ft | 306 kts | 69° |
| 2026-05-06 13:00 | 41.98726 | -87.58566 | 10233 ft | 314 kts | 69° |
| 2026-05-06 13:01 | 41.99423 | -87.55698 | 10567 ft | 332 kts | 69° |
| 2026-05-06 13:01 | 42.00155 | -87.52683 | 10861 ft | 350 kts | 70° |
| 2026-05-06 13:01 | 42.00929 | -87.49489 | 11223 ft | 367 kts | 70° |
| 2026-05-06 13:01 | 42.01733 | -87.46160 | 11609 ft | 384 kts | 70° |
| 2026-05-06 13:02 | 42.02575 | -87.42671 | 12010 ft | 400 kts | 70° |
| 2026-05-06 13:02 | 42.03450 | -87.39037 | 12532 ft | 413 kts | 70° |
| 2026-05-06 13:02 | 42.04325 | -87.35391 | 13241 ft | 420 kts | 70° |
| 2026-05-06 13:02 | 42.05235 | -87.31597 | 13940 ft | 428 kts | 71° |
| 2026-05-06 13:03 | 42.06148 | -87.27776 | 14641 ft | 436 kts | 71° |
| 2026-05-06 13:03 | 42.07079 | -87.23883 | 15362 ft | 443 kts | 71° |
| 2026-05-06 13:03 | 42.08032 | -87.19881 | 16068 ft | 451 kts | 71° |
| 2026-05-06 13:03 | 42.08988 | -87.15863 | 16703 ft | 459 kts | 72° |
| 2026-05-06 13:04 | 42.09974 | -87.11710 | 17409 ft | 465 kts | 72° |
| 2026-05-06 13:04 | 42.10878 | -87.07563 | 18040 ft | 471 kts | 78° |
| 2026-05-06 13:04 | 42.11359 | -87.03160 | 18596 ft | 478 kts | 87° |
| 2026-05-06 13:04 | 42.11554 | -86.98682 | 19262 ft | 482 kts | 89° |
| 2026-05-06 13:05 | 42.11720 | -86.94106 | 20013 ft | 485 kts | 89° |
| 2026-05-06 13:05 | 42.11882 | -86.89586 | 20655 ft | 489 kts | 89° |
| 2026-05-06 13:05 | 42.12046 | -86.84998 | 21197 ft | 495 kts | 89° |
| 2026-05-06 13:05 | 42.12210 | -86.80361 | 21750 ft | 501 kts | 89° |
| 2026-05-06 13:06 | 42.12377 | -86.75627 | 22379 ft | 505 kts | 89° |
| 2026-05-06 13:06 | 42.12542 | -86.70924 | 22963 ft | 509 kts | 89° |
| 2026-05-06 13:06 | 42.12706 | -86.66167 | 23516 ft | 513 kts | 89° |
| 2026-05-06 13:06 | 42.12872 | -86.61311 | 24054 ft | 518 kts | 89° |
| 2026-05-06 13:07 | 42.13038 | -86.56415 | 24570 ft | 524 kts | 89° |
| 2026-05-06 13:07 | 42.13201 | -86.51542 | 25152 ft | 527 kts | 89° |
| 2026-05-06 13:07 | 42.13364 | -86.46604 | 25721 ft | 531 kts | 89° |
| 2026-05-06 13:07 | 42.13528 | -86.41547 | 26256 ft | 535 kts | 89° |
| 2026-05-06 13:08 | 42.13689 | -86.36563 | 26833 ft | 539 kts | 89° |
| 2026-05-06 13:08 | 42.13851 | -86.31452 | 27337 ft | 544 kts | 89° |
| 2026-05-06 13:08 | 42.13869 | -86.30891 | 27387 ft | 544 kts | 90° |
| 2026-05-06 13:08 | 42.13887 | -86.30311 | 27441 ft | 545 kts | 90° |
| 2026-05-06 13:09 | 42.14046 | -86.25195 | 27868 ft | 551 kts | 90° |
| 2026-05-06 13:09 | 42.14206 | -86.20007 | 28392 ft | 554 kts | 89° |
| 2026-05-06 13:09 | 42.14363 | -86.14813 | 28964 ft | 557 kts | 89° |
| 2026-05-06 13:09 | 42.14498 | -86.09625 | 29543 ft | 558 kts | 91° |
| 2026-05-06 13:10 | 42.14479 | -86.04401 | 30214 ft | 558 kts | 93° |
| 2026-05-06 13:10 | 42.14428 | -85.99165 | 30920 ft | 556 kts | 93° |
| 2026-05-06 13:10 | 42.14378 | -85.93996 | 31506 ft | 556 kts | 92° |
| 2026-05-06 13:10 | 42.14327 | -85.88849 | 31962 ft | 558 kts | 93° |
| 2026-05-06 13:11 | 42.14277 | -85.83572 | 32407 ft | 560 kts | 92° |
| 2026-05-06 13:11 | 42.14227 | -85.78356 | 32784 ft | 563 kts | 92° |
| 2026-05-06 13:11 | 42.14177 | -85.73098 | 33171 ft | 564 kts | 91° |
| 2026-05-06 13:11 | 42.14124 | -85.67748 | 33565 ft | 565 kts | 92° |
| 2026-05-06 13:12 | 42.14071 | -85.62501 | 33920 ft | 567 kts | 92° |
| 2026-05-06 13:12 | 42.14016 | -85.57173 | 34354 ft | 568 kts | 91° |
| 2026-05-06 13:12 | 42.13959 | -85.51885 | 34840 ft | 567 kts | 91° |
| 2026-05-06 13:12 | 42.13899 | -85.46491 | 35395 ft | 565 kts | 92° |
| 2026-05-06 13:13 | 42.13839 | -85.41243 | 35890 ft | 563 kts | 92° |
| 2026-05-06 13:13 | 42.13776 | -85.35985 | 36375 ft | 561 kts | 91° |
| 2026-05-06 13:13 | 42.13710 | -85.30688 | 36714 ft | 562 kts | 93° |
| 2026-05-06 13:13 | 42.13643 | -85.25425 | 36955 ft | 564 kts | 93° |
| 2026-05-06 13:14 | 42.13572 | -85.20119 | 37235 ft | 566 kts | 92° |
| 2026-05-06 13:14 | 42.13500 | -85.14854 | 37570 ft | 565 kts | 93° |
| 2026-05-06 13:14 | 42.13425 | -85.09580 | 37930 ft | 564 kts | 93° |
| 2026-05-06 13:14 | 42.13349 | -85.04343 | 38304 ft | 561 kts | 93° |
| 2026-05-06 13:15 | 42.13265 | -84.99082 | 38556 ft | 562 kts | 93° |
| 2026-05-06 13:15 | 42.13173 | -84.93847 | 38827 ft | 563 kts | 93° |
| 2026-05-06 13:15 | 42.13077 | -84.88573 | 39149 ft | 563 kts | 93° |
| 2026-05-06 13:15 | 42.12980 | -84.83312 | 39465 ft | 562 kts | 94° |
| 2026-05-06 13:16 | 42.12880 | -84.78069 | 39819 ft | 559 kts | 94° |
| 2026-05-06 13:16 | 42.12780 | -84.72901 | 40162 ft | 557 kts | 93° |
| 2026-05-06 13:16 | 42.12676 | -84.67664 | 40430 ft | 557 kts | 94° |
| 2026-05-06 13:16 | 42.12571 | -84.62480 | 40614 ft | 558 kts | 94° |
| 2026-05-06 13:17 | 42.12461 | -84.57220 | 40859 ft | 558 kts | 94° |
| 2026-05-06 13:17 | 42.12403 | -84.46737 | 40925 ft | 563 kts | 85° |
| 2026-05-06 13:18 | 42.13461 | -84.36394 | 40950 ft | 559 kts | 81° |
| 2026-05-06 13:18 | 42.14639 | -84.25996 | 40922 ft | 561 kts | 82° |
| 2026-05-06 13:19 | 42.15799 | -84.15632 | 40926 ft | 560 kts | 82° |
| 2026-05-06 13:19 | 42.16948 | -84.05241 | 40924 ft | 561 kts | 82° |
| 2026-05-06 13:20 | 42.18085 | -83.94857 | 40937 ft | 562 kts | 82° |
| 2026-05-06 13:20 | 42.19212 | -83.84469 | 40938 ft | 562 kts | 82° |
| 2026-05-06 13:21 | 42.20341 | -83.73969 | 40928 ft | 561 kts | 82° |
| 2026-05-06 13:21 | 42.21450 | -83.63552 | 40932 ft | 561 kts | 81° |
| 2026-05-06 13:22 | 42.22418 | -83.53104 | 40934 ft | 561 kts | 89° |
| 2026-05-06 13:22 | 42.21715 | -83.42651 | 40927 ft | 557 kts | 106° |
| 2026-05-06 13:23 | 42.19941 | -83.32497 | 40908 ft | 555 kts | 108° |
| 2026-05-06 13:23 | 42.18124 | -83.22423 | 40917 ft | 555 kts | 109° |
| 2026-05-06 13:24 | 42.16286 | -83.12337 | 40914 ft | 555 kts | 108° |
| 2026-05-06 13:24 | 42.14429 | -83.02226 | 40913 ft | 556 kts | 108° |
| 2026-05-06 13:25 | 42.12561 | -82.92109 | 40918 ft | 555 kts | 108° |
| 2026-05-06 13:25 | 42.10686 | -82.82018 | 40908 ft | 554 kts | 108° |
| 2026-05-06 13:26 | 42.08798 | -82.71922 | 40912 ft | 558 kts | 108° |
| 2026-05-06 13:26 | 42.06892 | -82.61781 | 40924 ft | 558 kts | 108° |
| 2026-05-06 13:27 | 42.04985 | -82.51683 | 40911 ft | 557 kts | 108° |
| 2026-05-06 13:27 | 42.03062 | -82.41560 | 40921 ft | 556 kts | 109° |
| 2026-05-06 13:28 | 42.01131 | -82.31448 | 40889 ft | 558 kts | 109° |
| 2026-05-06 13:28 | 41.99207 | -82.21420 | 40901 ft | 557 kts | 109° |
| 2026-05-06 13:29 | 41.97271 | -82.11388 | 40877 ft | 558 kts | 109° |
| 2026-05-06 13:29 | 41.95316 | -82.01309 | 40914 ft | 560 kts | 109° |
| 2026-05-06 13:30 | 41.93353 | -81.91232 | 40904 ft | 557 kts | 109° |
| 2026-05-06 13:30 | 41.91566 | -81.81062 | 40902 ft | 563 kts | 101° |
| 2026-05-06 13:31 | 41.90618 | -81.70620 | 40887 ft | 564 kts | 99° |
| 2026-05-06 13:31 | 41.89705 | -81.60170 | 40896 ft | 569 kts | 99° |
| 2026-05-06 13:32 | 41.88771 | -81.49661 | 40897 ft | 565 kts | 99° |
| 2026-05-06 13:32 | 41.87831 | -81.39249 | 40886 ft | 564 kts | 100° |
| 2026-05-06 13:33 | 41.86870 | -81.28764 | 40865 ft | 568 kts | 100° |
| 2026-05-06 13:33 | 41.85902 | -81.18294 | 40886 ft | 563 kts | 100° |
| 2026-05-06 13:34 | 41.84922 | -81.07838 | 40870 ft | 567 kts | 101° |
| 2026-05-06 13:34 | 41.83922 | -80.97265 | 40872 ft | 566 kts | 100° |
| 2026-05-06 13:35 | 41.82926 | -80.86839 | 40873 ft | 565 kts | 100° |
| 2026-05-06 13:35 | 41.81912 | -80.76339 | 40891 ft | 567 kts | 100° |
| 2026-05-06 13:36 | 41.80894 | -80.65894 | 40889 ft | 567 kts | 100° |
| 2026-05-06 13:36 | 41.79865 | -80.55435 | 40892 ft | 566 kts | 101° |
| 2026-05-06 13:37 | 41.78830 | -80.45020 | 40886 ft | 565 kts | 100° |
| 2026-05-06 13:37 | 41.77776 | -80.34521 | 40888 ft | 570 kts | 101° |
| 2026-05-06 13:38 | 41.76716 | -80.24051 | 40851 ft | 566 kts | 101° |
| 2026-05-06 13:38 | 41.75649 | -80.13613 | 40849 ft | 566 kts | 101° |
| 2026-05-06 13:39 | 41.74565 | -80.03108 | 40844 ft | 570 kts | 101° |
| 2026-05-06 13:39 | 41.73479 | -79.92673 | 40865 ft | 566 kts | 102° |
| 2026-05-06 13:40 | 41.72380 | -79.82217 | 40849 ft | 571 kts | 101° |
| 2026-05-06 13:40 | 41.71270 | -79.71739 | 40862 ft | 568 kts | 101° |
| 2026-05-06 13:41 | 41.70152 | -79.61272 | 40856 ft | 566 kts | 101° |
| 2026-05-06 13:41 | 41.69020 | -79.50800 | 40866 ft | 569 kts | 101° |
| 2026-05-06 13:42 | 41.67882 | -79.40331 | 40855 ft | 567 kts | 101° |
| 2026-05-06 13:42 | 41.66742 | -79.29947 | 40849 ft | 567 kts | 102° |
| 2026-05-06 13:43 | 41.65585 | -79.19499 | 40813 ft | 568 kts | 101° |
| 2026-05-06 13:43 | 41.64416 | -79.09035 | 40837 ft | 568 kts | 102° |
| 2026-05-06 13:44 | 41.63243 | -78.98622 | 40833 ft | 566 kts | 101° |
| 2026-05-06 13:44 | 41.62063 | -78.88245 | 40844 ft | 570 kts | 102° |
| 2026-05-06 13:45 | 41.60865 | -78.77783 | 40825 ft | 565 kts | 101° |
| 2026-05-06 13:45 | 41.59065 | -78.62231 | 40836 ft | 568 kts | 102° |
| 2026-05-06 13:46 | 41.57848 | -78.51828 | 40836 ft | 567 kts | 102° |
| 2026-05-06 13:46 | 41.56626 | -78.41459 | 40818 ft | 566 kts | 101° |
| 2026-05-06 13:47 | 41.55391 | -78.31068 | 40827 ft | 568 kts | 102° |
| 2026-05-06 13:47 | 41.54147 | -78.20673 | 40822 ft | 564 kts | 102° |
| 2026-05-06 13:48 | 41.52896 | -78.10315 | 40824 ft | 565 kts | 102° |
| 2026-05-06 13:48 | 41.51628 | -77.99895 | 40805 ft | 567 kts | 102° |
| 2026-05-06 13:49 | 41.50269 | -77.89562 | 40826 ft | 563 kts | 103° |
| 2026-05-06 13:49 | 41.48801 | -77.79290 | 40850 ft | 566 kts | 104° |
| 2026-05-06 13:50 | 41.47324 | -77.68987 | 40860 ft | 565 kts | 104° |
| 2026-05-06 13:50 | 41.45840 | -77.58664 | 40811 ft | 567 kts | 104° |
| 2026-05-06 13:51 | 41.44356 | -77.48406 | 40828 ft | 567 kts | 103° |
| 2026-05-06 13:51 | 41.42861 | -77.38116 | 40833 ft | 566 kts | 103° |
| 2026-05-06 13:52 | 41.41359 | -77.27846 | 40823 ft | 564 kts | 104° |
| 2026-05-06 13:52 | 41.39842 | -77.17541 | 40821 ft | 567 kts | 104° |
| 2026-05-06 13:53 | 41.38319 | -77.07257 | 40830 ft | 567 kts | 104° |
| 2026-05-06 13:53 | 41.36786 | -76.96965 | 40829 ft | 566 kts | 104° |
| 2026-05-06 13:54 | 41.35251 | -76.86726 | 40612 ft | 560 kts | 104° |
| 2026-05-06 13:54 | 41.34477 | -76.81593 | 39734 ft | 565 kts | 105° |
| 2026-05-06 13:54 | 41.33535 | -76.76537 | 38970 ft | 563 kts | 112° |
| 2026-05-06 13:55 | 41.32278 | -76.71594 | 38232 ft | 563 kts | 115° |
| 2026-05-06 13:55 | 41.30984 | -76.66723 | 37506 ft | 564 kts | 115° |
| 2026-05-06 13:55 | 41.29676 | -76.61826 | 36773 ft | 565 kts | 114° |
| 2026-05-06 13:55 | 41.28360 | -76.56912 | 36038 ft | 566 kts | 114° |
| 2026-05-06 13:56 | 41.27027 | -76.51942 | 35276 ft | 567 kts | 114° |
| 2026-05-06 13:56 | 41.25705 | -76.47024 | 34492 ft | 567 kts | 114° |
| 2026-05-06 13:56 | 41.24386 | -76.42129 | 33725 ft | 566 kts | 114° |
| 2026-05-06 13:56 | 41.23052 | -76.37186 | 32920 ft | 567 kts | 114° |
| 2026-05-06 13:57 | 41.21711 | -76.32227 | 32052 ft | 567 kts | 115° |
| 2026-05-06 13:57 | 41.20369 | -76.27278 | 31140 ft | 567 kts | 115° |
| 2026-05-06 13:57 | 41.19040 | -76.22379 | 30326 ft | 564 kts | 116° |
| 2026-05-06 13:57 | 41.17699 | -76.17445 | 29839 ft | 555 kts | 116° |
| 2026-05-06 13:58 | 41.16407 | -76.12697 | 29346 ft | 547 kts | 115° |
| 2026-05-06 13:58 | 41.15101 | -76.07912 | 28777 ft | 540 kts | 115° |
| 2026-05-06 13:58 | 41.13828 | -76.03262 | 28220 ft | 534 kts | 115° |
| 2026-05-06 13:58 | 41.12574 | -75.98690 | 27651 ft | 527 kts | 115° |
| 2026-05-06 13:59 | 41.11325 | -75.94145 | 27096 ft | 521 kts | 115° |
| 2026-05-06 13:59 | 41.10088 | -75.89650 | 26519 ft | 511 kts | 116° |
| 2026-05-06 13:59 | 41.08888 | -75.85296 | 25815 ft | 501 kts | 115° |
| 2026-05-06 13:59 | 41.07709 | -75.81029 | 24943 ft | 496 kts | 115° |
| 2026-05-06 14:00 | 41.06518 | -75.76729 | 24112 ft | 489 kts | 114° |
| 2026-05-06 14:00 | 41.05362 | -75.72560 | 23343 ft | 481 kts | 114° |
| 2026-05-06 14:00 | 41.04218 | -75.68440 | 22628 ft | 473 kts | 114° |
| 2026-05-06 14:00 | 41.03095 | -75.64405 | 21976 ft | 464 kts | 114° |
| 2026-05-06 14:01 | 41.01981 | -75.60409 | 21216 ft | 458 kts | 114° |
| 2026-05-06 14:01 | 41.00881 | -75.56467 | 20396 ft | 454 kts | 115° |
| 2026-05-06 14:01 | 40.99794 | -75.52578 | 19613 ft | 448 kts | 115° |
| 2026-05-06 14:01 | 40.98721 | -75.48741 | 18828 ft | 442 kts | 115° |
| 2026-05-06 14:02 | 40.97661 | -75.44955 | 18076 ft | 435 kts | 115° |
| 2026-05-06 14:02 | 40.96621 | -75.41244 | 17303 ft | 430 kts | 115° |
| 2026-05-06 14:02 | 40.95594 | -75.37586 | 16559 ft | 424 kts | 115° |
| 2026-05-06 14:02 | 40.94567 | -75.33935 | 15846 ft | 416 kts | 116° |
| 2026-05-06 14:03 | 40.93587 | -75.30449 | 15403 ft | 401 kts | 117° |
| 2026-05-06 14:03 | 40.92625 | -75.27027 | 15131 ft | 382 kts | 117° |
| 2026-05-06 14:03 | 40.91717 | -75.23804 | 14924 ft | 364 kts | 117° |
| 2026-05-06 14:03 | 40.90848 | -75.20724 | 14691 ft | 346 kts | 118° |
| 2026-05-06 14:04 | 40.90025 | -75.17818 | 14453 ft | 329 kts | 118° |
| 2026-05-06 14:04 | 40.89238 | -75.15044 | 14150 ft | 316 kts | 119° |
| 2026-05-06 14:04 | 40.88471 | -75.12360 | 13628 ft | 313 kts | 119° |
| 2026-05-06 14:04 | 40.87706 | -75.09680 | 13048 ft | 313 kts | 118° |
| 2026-05-06 14:05 | 40.86945 | -75.06986 | 12492 ft | 310 kts | 119° |
| 2026-05-06 14:05 | 40.86199 | -75.04336 | 12040 ft | 304 kts | 119° |
| 2026-05-06 14:05 | 40.85469 | -75.01747 | 11525 ft | 302 kts | 119° |
| 2026-05-06 14:05 | 40.84735 | -74.99159 | 10932 ft | 302 kts | 118° |
| 2026-05-06 14:06 | 40.84010 | -74.96596 | 10445 ft | 298 kts | 119° |
| 2026-05-06 14:06 | 40.83287 | -74.94045 | 9924 ft | 294 kts | 119° |
| 2026-05-06 14:06 | 40.82578 | -74.91521 | 9387 ft | 294 kts | 116° |
| 2026-05-06 14:06 | 40.82352 | -74.88804 | 8920 ft | 304 kts | 86° |
| 2026-05-06 14:07 | 40.83047 | -74.86184 | 8405 ft | 310 kts | 65° |
| 2026-05-06 14:07 | 40.83924 | -74.83542 | 7897 ft | 310 kts | 76° |
| 2026-05-06 14:07 | 40.84499 | -74.80852 | 7651 ft | 304 kts | 81° |
| 2026-05-06 14:07 | 40.84948 | -74.78155 | 7377 ft | 301 kts | 83° |
| 2026-05-06 14:08 | 40.85358 | -74.75438 | 7072 ft | 300 kts | 83° |
| 2026-05-06 14:08 | 40.85757 | -74.72746 | 6855 ft | 296 kts | 83° |
| 2026-05-06 14:08 | 40.86152 | -74.70068 | 6529 ft | 295 kts | 83° |
| 2026-05-06 14:08 | 40.86540 | -74.67430 | 6236 ft | 293 kts | 83° |
| 2026-05-06 14:09 | 40.86928 | -74.64793 | 5956 ft | 291 kts | 83° |
| 2026-05-06 14:09 | 40.87313 | -74.62174 | 5702 ft | 290 kts | 83° |
| 2026-05-06 14:09 | 40.87697 | -74.59557 | 5557 ft | 290 kts | 83° |
| 2026-05-06 14:09 | 40.88079 | -74.56943 | 5444 ft | 288 kts | 83° |
| 2026-05-06 14:10 | 40.88457 | -74.54359 | 5339 ft | 288 kts | 83° |
| 2026-05-06 14:10 | 40.88840 | -74.51736 | 5226 ft | 288 kts | 83° |
| 2026-05-06 14:10 | 40.89217 | -74.49149 | 5116 ft | 287 kts | 83° |
| 2026-05-06 14:10 | 40.89594 | -74.46558 | 5003 ft | 287 kts | 83° |
| 2026-05-06 14:11 | 40.89971 | -74.43962 | 4888 ft | 287 kts | 83° |
| 2026-05-06 14:11 | 40.90347 | -74.41370 | 4779 ft | 286 kts | 83° |
| 2026-05-06 14:11 | 40.90722 | -74.38780 | 4664 ft | 285 kts | 83° |
| 2026-05-06 14:11 | 40.91095 | -74.36204 | 4548 ft | 284 kts | 83° |
| 2026-05-06 14:12 | 40.91462 | -74.33658 | 4433 ft | 282 kts | 84° |
| 2026-05-06 14:12 | 40.91832 | -74.31087 | 4320 ft | 283 kts | 83° |
| 2026-05-06 14:12 | 40.92199 | -74.28535 | 4211 ft | 281 kts | 83° |
| 2026-05-06 14:12 | 40.92560 | -74.26019 | 4099 ft | 279 kts | 83° |
| 2026-05-06 14:13 | 40.92923 | -74.23491 | 3990 ft | 280 kts | 83° |
| 2026-05-06 14:13 | 40.93287 | -74.20943 | 3880 ft | 280 kts | 83° |
| 2026-05-06 14:13 | 40.93595 | -74.18405 | 3763 ft | 276 kts | 93° |
| 2026-05-06 14:13 | 40.93255 | -74.16007 | 3647 ft | 262 kts | 121° |
| 2026-05-06 14:14 | 40.92210 | -74.14130 | 3541 ft | 243 kts | 144° |
| 2026-05-06 14:14 | 40.90916 | -74.12817 | 3459 ft | 230 kts | 153° |
| 2026-05-06 14:14 | 40.89598 | -74.11724 | 3392 ft | 214 kts | 156° |
| 2026-05-06 14:14 | 40.88306 | -74.10741 | 3302 ft | 214 kts | 157° |
| 2026-05-06 14:15 | 40.87014 | -74.09776 | 3212 ft | 210 kts | 158° |
| 2026-05-06 14:15 | 40.85791 | -74.08858 | 3130 ft | 194 kts | 158° |
| 2026-05-06 14:15 | 40.84644 | -74.08000 | 3058 ft | 185 kts | 159° |
| 2026-05-06 14:15 | 40.83496 | -74.07365 | 2989 ft | 172 kts | 177° |
| 2026-05-06 14:16 | 40.82299 | -74.07245 | 2884 ft | 172 kts | 183° |
| 2026-05-06 14:16 | 40.81119 | -74.07185 | 2734 ft | 169 kts | 185° |
| 2026-05-06 14:16 | 40.79932 | -74.07143 | 2602 ft | 169 kts | 184° |
| 2026-05-06 14:16 | 40.78765 | -74.07099 | 2471 ft | 168 kts | 184° |
| 2026-05-06 14:17 | 40.77569 | -74.07056 | 2278 ft | 170 kts | 184° |
| 2026-05-06 14:17 | 40.76389 | -74.07018 | 2060 ft | 170 kts | 187° |
| 2026-05-06 14:17 | 40.75297 | -74.07406 | 1861 ft | 155 kts | 205° |
| 2026-05-06 14:17 | 40.74398 | -74.07971 | 1651 ft | 133 kts | 208° |
| 2026-05-06 14:18 | 40.73614 | -74.08497 | 1495 ft | 117 kts | 208° |
| 2026-05-06 14:18 | 40.72913 | -74.08967 | 1348 ft | 114 kts | 208° |
| 2026-05-06 14:18 | 40.72200 | -74.09445 | 1187 ft | 114 kts | 208° |
| 2026-05-06 14:18 | 40.71489 | -74.09917 | 1050 ft | 115 kts | 208° |
| 2026-05-06 14:19 | 40.70830 | -74.10526 | 919 ft | 116 kts | 230° |
| 2026-05-06 14:19 | 40.70427 | -74.11446 | 773 ft | 118 kts | 239° |
| 2026-05-06 14:19 | 40.70130 | -74.12461 | 570 ft | 118 kts | 252° |
| 2026-05-06 14:19 | 40.70027 | -74.13532 | 368 ft | 117 kts | 262° |
| 2026-05-06 14:20 | 40.70052 | -74.14640 | 188 ft | 122 kts | 268° |
| 2026-05-06 14:20 | 40.70131 | -74.15765 | 55 ft | 121 kts | 268° |
| 2026-05-06 14:20 | 40.70192 | -74.16747 | 24 ft | 82 kts | 275° |
| 2026-05-06 14:20 | 40.70230 | -74.17293 | 24 ft | 48 kts | 276° |
| 2026-05-06 14:21 | 40.70244 | -74.17609 | 24 ft | 31 kts | 264° |
| 2026-05-06 14:21 | 40.70197 | -74.17796 | 24 ft | 8 kts | 244° |
| 2026-05-06 14:21 | 40.70170 | -74.17870 | 24 ft | 5 kts | 244° |
| 2026-05-06 14:21 | 40.70121 | -74.17921 | 24 ft | 7 kts | 190° |
| 2026-05-06 14:22 | 40.70080 | -74.17891 | 24 ft | 8 kts | 112° |
| 2026-05-06 14:22 | 40.70070 | -74.17804 | 24 ft | 10 kts | 97° |
| 2026-05-06 14:22 | 40.70056 | -74.17701 | 24 ft | 11 kts | 127° |
| 2026-05-06 14:22 | 40.69975 | -74.17672 | 24 ft | 13 kts | 168° |
| 2026-05-06 14:23 | 40.69906 | -74.17590 | 24 ft | 14 kts | 103° |
| 2026-05-06 14:23 | 40.69884 | -74.17450 | 24 ft | 16 kts | 109° |
| 2026-05-06 14:23 | 40.69825 | -74.17319 | 24 ft | 17 kts | 131° |
| 2026-05-06 14:23 | 40.69732 | -74.17203 | 24 ft | 18 kts | 143° |
| 2026-05-06 14:24 | 40.69615 | -74.17121 | 24 ft | 19 kts | 160° |
| 2026-05-06 14:24 | 40.69477 | -74.17076 | 24 ft | 20 kts | 171° |
| 2026-05-06 14:24 | 40.69332 | -74.17091 | 24 ft | 21 kts | 202° |
| 2026-05-06 14:24 | 40.69196 | -74.17177 | 24 ft | 21 kts | 206° |
| 2026-05-06 14:25 | 40.69058 | -74.17265 | 24 ft | 18 kts | 204° |
| 2026-05-06 14:25 | 40.69013 | -74.17293 | 24 ft | 7 kts | 203° |
| 2026-05-06 14:25 | 40.68948 | -74.17334 | 24 ft | 11 kts | 207° |
| 2026-05-06 14:25 | 40.68870 | -74.17384 | 24 ft | 13 kts | 201° |
| 2026-05-06 14:26 | 40.68776 | -74.17443 | 24 ft | 16 kts | 206° |
| 2026-05-06 14:26 | 40.68672 | -74.17509 | 24 ft | 17 kts | 205° |
| 2026-05-06 14:26 | 40.68560 | -74.17579 | 24 ft | 18 kts | 205° |
| 2026-05-06 14:26 | 40.68443 | -74.17653 | 24 ft | 18 kts | 206° |
| 2026-05-06 14:27 | 40.68331 | -74.17740 | 25 ft | 18 kts | 244° |
| 2026-05-06 14:27 | 40.68359 | -74.17874 | 25 ft | 15 kts | 297° |
| 2026-05-06 14:27 | 40.68410 | -74.18009 | 24 ft | 17 kts | 295° |
| 2026-05-06 14:27 | 40.68401 | -74.18117 | 24 ft | 10 kts | 248° |
| 2026-05-06 14:28 | 40.68391 | -74.18153 | 24 ft | 1 kts | 251° |
| 2026-05-06 14:28 | 40.68385 | -74.18179 | 24 ft | 4 kts | 251° |
| 2026-05-06 14:28 | 40.68382 | -74.18191 | 24 ft | 0 kts | 252° |